createdAt,value
2022-10-22T00:01:39.021Z,18.75
2022-10-22T00:04:07.009Z,19.53
2022-10-22T00:06:35.679Z,19.54
2022-10-22T00:09:04.757Z,19.82
2022-10-22T00:11:31.871Z,19.31
2022-10-22T00:14:00.264Z,19.67
2022-10-22T00:16:27.597Z,20.06
2022-10-22T00:18:54.750Z,20.03
2022-10-22T00:21:21.725Z,19.68
2022-10-22T00:23:49.036Z,19.50
2022-10-22T00:26:16.618Z,20.30
2022-10-22T00:28:45.923Z,19.46
2022-10-22T00:31:13.363Z,20.01
2022-10-22T00:33:40.559Z,20.24
2022-10-22T00:36:09.943Z,20.59
2022-10-22T00:38:37.452Z,19.79
2022-10-22T00:41:04.772Z,19.46
2022-10-22T00:43:32.097Z,19.51
2022-10-22T00:45:59.134Z,19.39
2022-10-22T00:48:30.038Z,19.06
2022-10-22T00:51:20.010Z,19.71
2022-10-22T00:53:56.162Z,19.52
2022-10-22T00:56:24.892Z,19.23
2022-10-22T00:59:00.779Z,18.49
2022-10-22T01:01:31.939Z,19.08
2022-10-22T01:04:00.473Z,18.93
2022-10-22T01:06:34.435Z,19.07
2022-10-22T01:09:47.534Z,18.86
2022-10-22T01:12:50.539Z,18.85
2022-10-22T01:15:59.656Z,19.12
2022-10-22T01:19:17.685Z,19.19
2022-10-22T01:21:54.185Z,19.73
2022-10-22T01:24:32.481Z,19.49
2022-10-22T01:27:21.071Z,19.54
2022-10-22T01:30:15.788Z,19.36
2022-10-22T01:33:07.381Z,19.70
2022-10-22T01:35:45.637Z,19.33
2022-10-22T01:38:21.906Z,19.18
2022-10-22T01:40:51.181Z,18.34
2022-10-22T01:43:18.761Z,19.29
2022-10-22T01:46:02.701Z,19.00
2022-10-22T01:49:31.023Z,18.92
2022-10-22T01:52:10.297Z,19.42
2022-10-22T01:55:06.267Z,19.48
2022-10-22T01:58:07.893Z,19.07
2022-10-22T02:00:46.268Z,19.35
2022-10-22T02:03:47.029Z,19.20
2022-10-22T02:06:55.793Z,19.33
2022-10-22T02:09:27.044Z,19.54
2022-10-22T02:14:36.871Z,19.14
2022-10-22T02:17:08.530Z,18.95
2022-10-22T02:19:47.584Z,19.35
2022-10-22T02:22:20.197Z,19.76
2022-10-22T02:24:49.385Z,19.40
2022-10-22T02:27:47.907Z,19.69
2022-10-22T02:30:20.257Z,19.76
2022-10-22T02:33:12.900Z,19.55
2022-10-22T02:35:43.853Z,19.65
2022-10-22T02:38:13.879Z,19.77
2022-10-22T02:40:45.600Z,19.39
2022-10-22T02:43:12.797Z,19.46
2022-10-22T02:45:40.492Z,19.72
2022-10-22T02:48:07.950Z,19.29
2022-10-22T02:50:35.565Z,19.09
2022-10-22T02:53:03.642Z,19.42
2022-10-22T02:55:33.390Z,19.88
2022-10-22T02:58:03.702Z,19.60
2022-10-22T03:00:31.391Z,19.50
2022-10-22T03:02:58.495Z,19.43
2022-10-22T03:05:25.933Z,19.74
2022-10-22T03:07:53.274Z,19.95
2022-10-22T03:10:20.718Z,20.32
2022-10-22T03:12:58.581Z,19.80
2022-10-22T03:18:01.675Z,20.12
2022-10-22T03:20:29.174Z,19.85
2022-10-22T03:23:01.275Z,19.73
2022-10-22T03:25:31.204Z,20.00
2022-10-22T03:28:07.667Z,20.31
2022-10-22T03:30:34.733Z,19.88
2022-10-22T03:33:01.843Z,19.91
2022-10-22T03:35:30.155Z,20.03
2022-10-22T03:38:01.806Z,19.82
2022-10-22T03:40:29.896Z,19.43
2022-10-22T03:42:59.101Z,20.04
2022-10-22T03:45:29.347Z,20.09
2022-10-22T03:47:56.536Z,19.91
2022-10-22T03:50:26.706Z,19.67
2022-10-22T03:52:53.846Z,19.90
2022-10-22T03:55:21.161Z,20.04
2022-10-22T03:57:51.356Z,19.36
2022-10-22T04:00:19.817Z,20.09
2022-10-22T04:02:47.149Z,20.26
2022-10-22T04:07:48.765Z,20.48
2022-10-22T04:10:23.314Z,20.28
2022-10-22T04:12:51.565Z,19.95
2022-10-22T04:15:19.078Z,19.86
2022-10-22T04:17:48.539Z,20.39
2022-10-22T04:20:16.041Z,19.70
2022-10-22T04:22:43.484Z,20.56
2022-10-22T04:25:14.121Z,20.82
2022-10-22T04:27:41.334Z,20.54
2022-10-22T04:30:12.946Z,20.39
2022-10-22T04:32:40.018Z,19.99
2022-10-22T04:35:08.455Z,20.71
2022-10-22T04:37:37.471Z,19.77
2022-10-22T04:40:05.998Z,19.96
2022-10-22T04:42:33.095Z,20.64
2022-10-22T04:45:00.035Z,20.90
2022-10-22T04:47:27.219Z,20.53
2022-10-22T04:49:56.109Z,20.08
2022-10-22T04:52:23.190Z,20.03
2022-10-22T04:54:50.140Z,19.89
2022-10-22T04:57:17.223Z,19.73
2022-10-22T04:59:44.176Z,20.27
2022-10-22T05:02:11.372Z,20.30
2022-10-22T05:04:38.544Z,19.94
2022-10-22T05:07:06.127Z,20.33
2022-10-22T05:09:34.540Z,20.39
2022-10-22T05:12:01.863Z,20.30
2022-10-22T05:14:28.897Z,19.70
2022-10-22T05:16:55.950Z,20.44
2022-10-22T05:19:31.448Z,20.40
2022-10-22T05:22:02.707Z,19.67
2022-10-22T05:24:34.896Z,20.10
2022-10-22T05:27:04.823Z,20.12
2022-10-22T05:29:41.024Z,20.32
2022-10-22T05:32:10.550Z,20.26
2022-10-22T05:34:37.831Z,20.97
2022-10-22T05:37:04.930Z,20.68
2022-10-22T05:39:31.998Z,20.97
2022-10-22T05:41:59.108Z,21.00
2022-10-22T05:44:26.288Z,20.58
2022-10-22T05:46:55.977Z,20.76
2022-10-22T05:49:23.074Z,20.60
2022-10-22T05:51:53.225Z,20.49
2022-10-22T05:54:22.477Z,20.53
2022-10-22T05:56:57.789Z,20.60
2022-10-22T05:59:24.869Z,20.62
2022-10-22T06:01:53.293Z,21.03
2022-10-22T06:04:23.361Z,20.95
2022-10-22T06:06:53.426Z,20.43
2022-10-22T06:12:09.074Z,21.23
2022-10-22T06:14:40.733Z,21.94
2022-10-22T06:17:08.500Z,21.20
2022-10-22T06:19:35.743Z,21.56
2022-10-22T06:22:06.317Z,21.42
2022-10-22T06:24:33.421Z,20.58
2022-10-22T06:27:03.364Z,20.91
2022-10-22T06:29:31.428Z,20.27
2022-10-22T06:32:07.662Z,20.81
2022-10-22T06:34:39.141Z,20.75
2022-10-22T06:37:07.418Z,20.50
2022-10-22T06:39:34.564Z,19.92
2022-10-22T06:42:01.750Z,19.46
2022-10-22T06:44:29.355Z,20.06
2022-10-22T06:46:56.517Z,20.46
2022-10-22T06:49:23.793Z,20.12
2022-10-22T06:51:53.139Z,20.49
2022-10-22T06:54:22.544Z,19.54
2022-10-22T06:56:51.343Z,20.52
2022-10-22T06:59:18.525Z,21.00
2022-10-22T07:01:45.768Z,20.03
2022-10-22T07:04:16.005Z,20.59
2022-10-22T07:06:43.291Z,20.50
2022-10-22T07:09:13.061Z,19.14
2022-10-22T07:11:47.700Z,20.73
2022-10-22T07:14:15.742Z,20.94
2022-10-22T07:16:43.367Z,21.39
2022-10-22T07:19:10.693Z,21.64
2022-10-22T07:21:38.150Z,21.42
2022-10-22T07:24:05.633Z,20.26
2022-10-22T07:26:33.899Z,21.71
2022-10-22T07:29:01.744Z,22.18
2022-10-22T07:31:30.277Z,20.20
2022-10-22T07:33:58.457Z,21.00
2022-10-22T07:36:28.754Z,20.86
2022-10-22T07:39:00.854Z,19.32
2022-10-22T07:41:32.130Z,19.99
2022-10-22T07:44:00.186Z,20.99
2022-10-22T07:46:27.685Z,19.72
2022-10-22T07:48:57.970Z,21.08
2022-10-22T07:51:25.145Z,21.64
2022-10-22T07:53:52.603Z,19.55
2022-10-22T07:56:19.809Z,21.37
2022-10-22T07:58:46.904Z,20.58
2022-10-22T08:01:14.069Z,21.86
2022-10-22T08:03:42.716Z,19.69
2022-10-22T08:06:13.754Z,20.75
2022-10-22T08:08:42.409Z,20.06
2022-10-22T08:11:10.911Z,20.70
2022-10-22T08:13:44.899Z,19.58
2022-10-22T08:16:13.000Z,19.65
2022-10-22T08:18:43.989Z,19.97
2022-10-22T08:21:14.713Z,20.61
2022-10-22T08:23:41.872Z,19.98
2022-10-22T08:26:28.526Z,19.55
2022-10-22T08:28:56.083Z,20.95
2022-10-22T08:31:23.684Z,19.45
2022-10-22T08:33:53.681Z,19.91
2022-10-22T08:36:20.874Z,19.91
2022-10-22T08:38:51.425Z,20.66
2022-10-22T08:41:25.582Z,19.60
2022-10-22T08:44:24.438Z,21.08
2022-10-22T08:47:40.149Z,19.96
2022-10-22T08:50:15.108Z,20.69
2022-10-22T08:52:49.334Z,19.78
2022-10-22T08:55:17.709Z,21.43
2022-10-22T08:58:03.509Z,20.82
2022-10-22T09:00:38.538Z,22.02
2022-10-22T09:03:43.000Z,22.21
2022-10-22T09:06:16.949Z,22.22
2022-10-22T09:08:48.370Z,21.22
2022-10-22T09:11:38.034Z,22.08
2022-10-22T09:14:16.825Z,21.16
2022-10-22T09:17:19.578Z,21.56
2022-10-22T09:20:03.703Z,20.51
2022-10-22T09:22:53.125Z,21.66
2022-10-22T09:25:26.761Z,22.04
2022-10-22T09:27:59.730Z,21.44
2022-10-22T09:30:34.811Z,21.00
2022-10-22T09:33:07.740Z,22.01
2022-10-22T09:35:44.351Z,21.64
2022-10-22T09:38:17.213Z,21.74
2022-10-22T09:40:54.670Z,23.17
2022-10-22T09:43:23.528Z,23.35
2022-10-22T09:46:00.473Z,23.50
2022-10-22T09:48:39.571Z,23.49
2022-10-22T09:51:36.334Z,22.39
2022-10-22T09:54:25.535Z,23.26
2022-10-22T09:57:22.223Z,22.87
2022-10-22T09:59:58.060Z,21.99
2022-10-22T10:02:44.433Z,22.39
2022-10-22T10:05:25.086Z,22.51
2022-10-22T10:08:01.906Z,22.59
2022-10-22T10:10:49.432Z,22.19
2022-10-22T10:14:01.539Z,22.05
2022-10-22T10:17:06.433Z,22.06
2022-10-22T10:20:15.307Z,23.40
2022-10-22T10:23:01.354Z,23.71
2022-10-22T10:25:54.435Z,23.89
2022-10-22T10:28:55.206Z,21.57
2022-10-22T10:31:55.572Z,22.65
2022-10-22T10:35:16.578Z,22.60
2022-10-22T10:38:25.926Z,21.81
2022-10-22T10:40:59.826Z,21.83
2022-10-22T10:44:20.292Z,22.23
2022-10-22T10:47:07.517Z,21.41
2022-10-22T10:49:36.759Z,21.24
2022-10-22T10:52:21.650Z,22.49
2022-10-22T10:55:03.904Z,23.45
2022-10-22T10:58:02.079Z,23.03
2022-10-22T11:00:41.395Z,21.98
2022-10-22T11:03:50.470Z,21.28
2022-10-22T11:06:25.385Z,21.83
2022-10-22T11:09:17.890Z,22.71
2022-10-22T11:11:55.482Z,23.58
2022-10-22T11:15:24.198Z,24.16
2022-10-22T11:17:56.711Z,22.08
2022-10-22T11:20:36.973Z,22.40
2022-10-22T11:23:21.519Z,22.96
2022-10-22T11:25:53.178Z,23.29
2022-10-22T11:28:29.003Z,23.87
2022-10-22T11:31:17.501Z,22.84
2022-10-22T11:34:21.729Z,25.25
2022-10-22T11:36:58.303Z,24.12
2022-10-22T11:39:45.770Z,23.14
2022-10-22T11:42:32.650Z,25.08
2022-10-22T11:45:09.052Z,23.92
2022-10-22T11:48:15.496Z,25.01
2022-10-22T11:50:53.126Z,23.11
2022-10-22T11:53:37.569Z,23.84
2022-10-22T11:56:10.360Z,25.03
2022-10-22T11:58:43.975Z,23.38
2022-10-22T12:01:11.224Z,22.39
2022-10-22T12:04:00.016Z,22.45
2022-10-22T12:07:12.511Z,21.73
2022-10-22T12:09:56.257Z,21.64
2022-10-22T12:12:51.174Z,23.53
2022-10-22T12:15:52.461Z,24.20
2022-10-22T12:18:53.759Z,24.46
2022-10-22T12:21:31.047Z,24.76
2022-10-22T12:24:07.860Z,23.49
2022-10-22T12:26:38.370Z,22.87
2022-10-22T12:29:22.393Z,23.68
2022-10-22T12:32:09.230Z,22.68
2022-10-22T12:35:02.076Z,23.18
2022-10-22T12:37:46.002Z,23.41
2022-10-22T12:40:46.031Z,23.65
2022-10-22T12:43:37.792Z,23.29
2022-10-22T12:46:19.828Z,26.06
2022-10-22T12:49:00.613Z,25.57
2022-10-22T12:51:43.915Z,24.39
2022-10-22T12:54:35.884Z,22.80
2022-10-22T12:57:11.225Z,23.96
2022-10-22T13:02:39.232Z,24.88
2022-10-22T13:05:31.188Z,24.10
2022-10-22T13:08:29.415Z,24.04
2022-10-22T13:11:12.424Z,23.34
2022-10-22T13:13:39.399Z,24.04
2022-10-22T13:16:26.026Z,23.24
2022-10-22T13:18:56.521Z,22.67
2022-10-22T13:21:50.581Z,23.18
2022-10-22T13:24:24.936Z,25.58
2022-10-22T13:26:57.621Z,22.84
2022-10-22T13:29:26.248Z,23.50
2022-10-22T13:31:54.331Z,22.63
2022-10-22T13:34:25.754Z,23.24
2022-10-22T13:36:57.827Z,23.02
2022-10-22T13:39:25.760Z,22.69
2022-10-22T13:41:52.910Z,23.36
2022-10-22T13:44:20.810Z,24.31
2022-10-22T13:46:49.427Z,25.19
2022-10-22T13:49:27.224Z,23.62
2022-10-22T13:51:54.360Z,25.35
2022-10-22T13:54:24.983Z,24.24
2022-10-22T13:56:54.323Z,24.68
2022-10-22T13:59:24.149Z,24.82
2022-10-22T14:01:52.284Z,24.23
2022-10-22T14:04:21.975Z,23.66
2022-10-22T14:06:49.634Z,24.30
2022-10-22T14:09:24.972Z,23.12
2022-10-22T14:11:52.235Z,22.73
2022-10-22T14:14:19.365Z,23.35
2022-10-22T14:16:51.318Z,23.63
2022-10-22T14:19:18.861Z,23.67
2022-10-22T14:21:49.421Z,23.46
2022-10-22T14:24:19.503Z,22.69
2022-10-22T14:26:49.534Z,24.32
2022-10-22T14:29:16.752Z,23.15
2022-10-22T14:31:47.314Z,23.45
2022-10-22T14:34:16.950Z,23.88
2022-10-22T14:36:44.665Z,26.01
2022-10-22T14:39:16.177Z,25.01
2022-10-22T14:41:43.772Z,24.41
2022-10-22T14:44:14.587Z,23.11
2022-10-22T14:46:44.479Z,22.36
2022-10-22T14:49:12.261Z,23.22
2022-10-22T14:51:42.141Z,23.93
2022-10-22T14:54:09.184Z,23.51
2022-10-22T14:56:43.595Z,22.53
2022-10-22T14:59:13.560Z,23.45
2022-10-22T15:01:44.614Z,22.95
2022-10-22T15:04:11.935Z,22.10
2022-10-22T15:06:42.885Z,21.32
2022-10-22T15:09:13.293Z,21.57
2022-10-22T15:11:41.260Z,21.86
2022-10-22T15:14:11.703Z,22.00
2022-10-22T15:16:39.584Z,22.52
2022-10-22T15:19:07.721Z,21.22
2022-10-22T15:21:37.244Z,21.13
2022-10-22T15:24:07.034Z,21.55
2022-10-22T15:26:34.567Z,21.67
2022-10-22T15:29:04.939Z,22.57
2022-10-22T15:31:57.899Z,21.75
2022-10-22T15:34:33.901Z,20.91
2022-10-22T15:37:05.898Z,21.10
2022-10-22T15:39:36.195Z,20.73
2022-10-22T15:42:07.118Z,21.54
2022-10-22T15:44:34.949Z,21.05
2022-10-22T15:47:06.616Z,20.53
2022-10-22T15:49:38.537Z,20.69
2022-10-22T15:52:07.191Z,20.82
2022-10-22T15:54:37.728Z,21.20
2022-10-22T15:57:13.995Z,20.51
2022-10-22T15:59:45.370Z,20.85
2022-10-22T16:02:26.931Z,21.25
2022-10-22T16:05:07.907Z,20.35
2022-10-22T16:08:04.424Z,21.25
2022-10-22T16:10:47.741Z,22.14
2022-10-22T16:13:25.801Z,21.40
2022-10-22T16:15:57.995Z,20.61
2022-10-22T16:18:32.579Z,20.44
2022-10-22T16:21:09.835Z,21.25
2022-10-22T16:23:45.580Z,21.17
2022-10-22T16:26:19.146Z,21.31
2022-10-22T16:28:52.572Z,21.63
2022-10-22T16:31:29.446Z,20.03
2022-10-22T16:33:59.781Z,21.57
2022-10-22T16:36:32.961Z,22.10
2022-10-22T16:39:06.579Z,20.48
2022-10-22T16:41:38.766Z,20.14
2022-10-22T16:44:19.224Z,20.25
2022-10-22T16:46:52.947Z,20.81
2022-10-22T16:49:27.136Z,21.41
2022-10-22T16:51:54.932Z,21.36
2022-10-22T16:54:25.636Z,21.66
2022-10-22T16:56:57.163Z,21.60
2022-10-22T16:59:28.749Z,21.19
2022-10-22T17:02:01.891Z,21.85
2022-10-22T17:04:44.653Z,21.39
2022-10-22T17:07:28.764Z,20.81
2022-10-22T17:10:04.256Z,21.24
2022-10-22T17:12:43.107Z,20.97
2022-10-22T17:15:29.154Z,21.13
2022-10-22T17:18:09.225Z,21.13
2022-10-22T17:21:00.815Z,21.58
2022-10-22T17:24:28.044Z,21.56
2022-10-22T17:27:21.233Z,21.64
2022-10-22T17:30:24.939Z,20.98
2022-10-22T17:33:05.055Z,21.35
2022-10-22T17:35:52.804Z,20.62
2022-10-22T17:38:25.272Z,20.91
2022-10-22T17:41:07.493Z,21.22
2022-10-22T17:43:41.539Z,20.62
2022-10-22T17:46:18.190Z,20.45
2022-10-22T17:48:51.156Z,20.20
2022-10-22T17:51:26.097Z,20.56
2022-10-22T17:53:59.862Z,21.57
2022-10-22T17:57:06.254Z,21.10
2022-10-22T17:59:52.177Z,21.99
2022-10-22T18:02:24.014Z,20.88
2022-10-22T18:05:22.808Z,22.00
2022-10-22T18:08:06.969Z,21.84
2022-10-22T18:10:48.668Z,21.51
2022-10-22T18:13:22.378Z,21.85
2022-10-22T18:16:03.107Z,21.25
2022-10-22T18:18:33.370Z,21.24
2022-10-22T18:21:18.524Z,21.23
2022-10-22T18:23:58.149Z,20.60
2022-10-22T18:26:35.856Z,20.60
2022-10-22T18:29:16.182Z,20.66
2022-10-22T18:32:15.084Z,20.20
2022-10-22T18:34:49.397Z,20.99
2022-10-22T18:37:44.868Z,20.89
2022-10-22T18:40:20.688Z,20.50
2022-10-22T18:43:05.925Z,20.50
2022-10-22T18:45:41.574Z,21.32
2022-10-22T18:48:18.863Z,20.30
2022-10-22T18:51:01.792Z,20.98
2022-10-22T18:54:23.926Z,21.09
2022-10-22T18:57:03.023Z,20.08
2022-10-22T18:59:47.862Z,20.77
2022-10-22T19:02:34.045Z,20.18
2022-10-22T19:05:18.517Z,20.42
2022-10-22T19:11:21.316Z,20.98
2022-10-22T19:14:15.453Z,21.36
2022-10-22T19:16:51.353Z,21.38
2022-10-22T19:19:58.742Z,21.49
2022-10-22T19:22:44.124Z,21.55
2022-10-22T19:25:17.551Z,21.76
2022-10-22T19:27:53.412Z,21.18
2022-10-22T19:30:28.564Z,20.12
2022-10-22T19:32:59.137Z,21.29
2022-10-22T19:35:42.368Z,21.25
2022-10-22T19:38:20.171Z,21.38
2022-10-22T19:41:17.433Z,21.39
2022-10-22T19:43:51.957Z,21.68
2022-10-22T19:46:42.025Z,21.80
2022-10-22T19:49:15.433Z,22.05
2022-10-22T19:51:47.570Z,21.62
2022-10-22T19:54:23.487Z,22.29
2022-10-22T19:57:17.515Z,21.46
2022-10-22T19:59:58.758Z,20.99
2022-10-22T20:02:32.231Z,21.38
2022-10-22T20:05:11.230Z,20.65
2022-10-22T20:07:44.996Z,21.01
2022-10-22T20:10:21.982Z,20.52
2022-10-22T20:12:58.380Z,21.06
2022-10-22T20:15:36.489Z,20.90
2022-10-22T20:18:08.233Z,20.30
2022-10-22T20:21:01.814Z,20.68
2022-10-22T20:23:35.272Z,20.71
2022-10-22T20:28:57.875Z,20.73
2022-10-22T20:31:34.244Z,21.38
2022-10-22T20:34:06.304Z,21.17
2022-10-22T20:36:33.984Z,21.75
2022-10-22T20:39:08.670Z,20.42
2022-10-22T20:41:49.815Z,21.09
2022-10-22T20:44:42.231Z,21.74
2022-10-22T20:47:13.255Z,21.45
2022-10-22T20:49:59.318Z,21.83
2022-10-22T20:52:35.999Z,21.84
2022-10-22T20:55:05.233Z,21.57
2022-10-22T20:57:43.430Z,21.37
2022-10-22T21:00:23.169Z,21.56
2022-10-22T21:03:05.538Z,21.30
2022-10-22T21:05:54.394Z,20.65
2022-10-22T21:08:32.055Z,21.47
2022-10-22T21:11:09.713Z,21.45
2022-10-22T21:13:51.048Z,21.09
2022-10-22T21:19:13.805Z,20.71
2022-10-22T21:21:52.980Z,21.60
2022-10-22T21:24:28.861Z,21.46
2022-10-22T21:27:07.718Z,21.28
2022-10-22T21:29:40.393Z,21.89
2022-10-22T21:32:17.849Z,21.93
2022-10-22T21:34:52.717Z,21.58
2022-10-22T21:37:32.135Z,21.78
2022-10-22T21:40:04.995Z,21.93
2022-10-22T21:42:49.590Z,21.46
2022-10-22T21:45:28.200Z,21.74
2022-10-22T21:47:57.069Z,21.38
2022-10-22T21:50:37.483Z,21.76
2022-10-22T21:53:16.076Z,21.72
2022-10-22T21:55:55.407Z,21.89
2022-10-22T21:58:26.017Z,21.23
2022-10-22T22:01:06.016Z,21.39
2022-10-22T22:03:52.431Z,21.45
2022-10-22T22:06:33.624Z,21.38
2022-10-22T22:09:21.609Z,22.10
2022-10-22T22:12:10.474Z,21.47
2022-10-22T22:14:56.835Z,21.54
2022-10-22T22:17:27.383Z,21.22
2022-10-22T22:19:57.221Z,21.34
2022-10-22T22:22:34.464Z,21.40
2022-10-22T22:25:03.990Z,21.32
2022-10-22T22:27:44.983Z,21.65
2022-10-22T22:30:13.591Z,21.24
2022-10-22T22:32:48.991Z,21.21
2022-10-22T22:35:20.530Z,21.36
2022-10-22T22:37:54.198Z,21.37
2022-10-22T22:40:31.510Z,21.35
2022-10-22T22:43:10.920Z,21.15
2022-10-22T22:45:44.566Z,21.23
2022-10-22T22:48:20.619Z,20.67
2022-10-22T22:50:53.630Z,19.79
2022-10-22T22:53:30.123Z,20.50
2022-10-22T22:56:37.307Z,22.01
2022-10-22T22:59:13.919Z,21.72
2022-10-22T23:01:50.449Z,21.06
2022-10-22T23:04:28.460Z,22.11
2022-10-22T23:07:12.676Z,21.51
2022-10-22T23:09:42.682Z,21.89
2022-10-22T23:12:18.506Z,21.45
2022-10-22T23:14:48.385Z,21.80
2022-10-22T23:17:21.896Z,21.74
2022-10-22T23:20:01.618Z,21.85
2022-10-22T23:22:34.865Z,22.16
2022-10-22T23:25:03.507Z,21.34
2022-10-22T23:27:33.960Z,21.78
2022-10-22T23:30:08.071Z,22.04
2022-10-22T23:32:43.516Z,21.18
2022-10-22T23:35:11.204Z,21.51
2022-10-22T23:37:42.975Z,21.43
2022-10-22T23:40:12.540Z,20.86
2022-10-22T23:42:51.427Z,21.61
2022-10-22T23:45:21.490Z,21.26
2022-10-22T23:47:59.070Z,20.58
2022-10-22T23:50:29.028Z,20.91
2022-10-22T23:53:00.479Z,21.14
2022-10-22T23:55:28.048Z,21.13
2022-10-22T23:58:03.197Z,21.13
